Garden City, South Dakota
Current Conditions -  °F | °C
As of 7:53 AM on Thursday 27 Nov 2014 (Local Time) from KATY Reporting Station
Clear Clear  
Wind Chill: -12°   Ceiling: Unl
Heat Index: -12°   Visibility: 10mi
Dew Point: -17°   Wind: 0mph
Humidity: 78%   Direction: NA
Pressure: 30.41"   Gusts: NA
Location:  44.96°N, 97.58°W
Report Text: KATY 271353Z AUTO 00000KT 10SM CLR M24/M27 A3041 RMK AO2 SLP353 T12441272
Loading
Personal Weather Stations






























Interactive Weather Map New forecast layout! Learn more

10-Day Weather Forecast

Advertisements
Track Severe Weather on mobile